CheckWX is a tool to help pilots better visualize weather data.  It is not intended as a substitute for an official pre-flight weather briefing.

14:10:26 UTC

ENBN METAR
Brønnøysund Airport
Brønnøy, Norway
Current

20 mins ago

ENBN 201350Z 36012KT 9999 FEW010 17/13 Q1012
Observed
Jul-20 @ 13:50 UTC
Wind
  • 360° at 12 KTS
Visibility
10,000+ meters
Flight Rules
VFR
Cloud Levels
  • Few at 1,000' AGL
Temperature
17°C / 63°F
Dewpoint
13°C / 55°F
Humidity
77%
Altimeter
29.88" Hg
Pressure
1011.92 hPa
Previous

50 mins ago

ENBN 201320Z 35012KT 9999 FEW010 16/13 Q1013
Observed
Jul-20 @ 13:20 UTC
Wind
  • 350° at 12 KTS
Visibility
10,000+ meters
Flight Rules
VFR
Cloud Levels
  • Few at 1,000' AGL
Temperature
16°C / 61°F
Dewpoint
13°C / 55°F
Humidity
83%
Altimeter
29.91" Hg
Pressure
1012.92 hPa
Previous

1 hour ago

ENBN 201250Z 36011KT 9999 FEW013 17/13 Q1013
Observed
Jul-20 @ 12:50 UTC
Wind
  • 360° at 11 KTS
Visibility
10,000+ meters
Flight Rules
VFR
Cloud Levels
  • Few at 1,300' AGL
Temperature
17°C / 63°F
Dewpoint
13°C / 55°F
Humidity
77%
Altimeter
29.91" Hg
Pressure
1012.92 hPa